Latest Weather Observations for Mount Hotham Airport

IDV60801

Issued at 2:05 am EST Thursday 2 October 2014 (issued every 30 minutes, with the page automatically refreshed every 10 minutes)

About weather observations | Map of weather stations | Latest weather observations for VIC | Other Formats
Station Details ID: 083055 Name: MOUNT HOTHAM AIRPORT Lat: -37.05 Lon: 147.33 Height: 1295.4 m
Data from the previous 72 hours. | See also: Recent months at Mount Hotham Airport
Date/Time
EST
Temp
°C
App
Temp
°C
Dew
Point
Rel
Hum
%
Delta-T
°C
Wind Press
QNH
hPa
Press
MSL
hPa
Rain
since 9 am
mm
Dir
 
Spd
km/h
Gust
km/h
Spd
kts
Gust
kts
02/02:00am -0.6 -4.3 -3.0 84 0.8 NNW 7 9 4 5 1021.6 - 0.0
02/01:30am -1.0 -4.7 -2.9 87 0.6 NNW 7 7 4 4 1021.8 - 0.0
02/01:00am -0.7 -4.8 -3.1 84 0.8 NNW 9 11 5 6 1022.0 - 0.0
02/12:30am -0.1 -3.6 -2.6 83 0.9 NNW 6 9 3 5 1022.2 - 0.0
02/12:00am -0.8 -4.9 -3.2 84 0.8 WNW 9 13 5 7 1022.3 1023.1 0.0
 
Date/Time
EST
Temp
°C
App
Temp
°C
Dew
Point
Rel
Hum
%
Delta-T
°C
Wind Press
QNH
hPa
Press
MSL
hPa
Rain
since 9 am
mm
Dir
 
Spd
km/h
Gust
km/h
Spd
kts
Gust
kts
01/11:30pm -0.7 -4.7 -2.4 88 0.6 WNW 9 13 5 7 1022.4 - 0.0
01/11:00pm -1.8 -6.0 -3.5 88 0.5 W 9 11 5 6 1022.5 - 0.0
01/10:30pm -1.8 -5.6 -3.4 89 0.5 W 7 9 4 5 1022.9 - 0.0
01/10:00pm -2.5 -6.3 -4.1 89 0.4 W 7 7 4 4 1022.8 - 0.0
01/09:30pm -2.0 -5.7 -4.3 84 0.7 W 6 9 3 5 1022.9 - 0.0
01/09:00pm -1.1 -4.7 -3.8 82 0.9 WSW 6 9 3 5 1022.9 1023.6 0.0
01/08:55pm -1.6 -5.3 -4.9 78 1.1 WSW 6 9 3 5 1022.9 - 0.0
01/08:43pm 0.8 -2.4 -3.3 74 1.5 SW 4 6 2 3 1022.8 - 0.0
01/08:42pm 1.0 -2.2 -3.1 74 1.6 SW 4 6 2 3 1022.9 - 0.0
01/08:30pm 1.6 -1.9 -2.7 73 1.7 SW 6 7 3 4 1022.8 - 0.0
01/08:29pm 1.7 -1.8 -2.6 73 1.6 SW 6 7 3 4 1022.8 - 0.0
01/08:00pm 1.7 -2.4 -2.8 72 1.7 WSW 9 15 5 8 1022.5 - 0.0
01/07:30pm 2.1 -2.3 -2.8 70 1.8 SW 11 15 6 8 1022.1 - 0.0
01/07:00pm 2.3 -1.8 -2.8 69 1.9 WSW 9 13 5 7 1021.6 - 0.0
01/06:30pm 2.8 -0.9 -2.5 68 2.0 WSW 7 11 4 6 1021.1 - 0.0
01/06:00pm 4.2 -0.9 -2.0 64 2.4 SSW 15 22 8 12 1021.3 1022.0 0.0
01/05:30pm 5.2 1.1 -2.8 56 3.1 SW 9 17 5 9 1021.2 - 0.0
01/05:00pm 7.1 2.0 -2.3 51 3.8 SW 15 22 8 12 1021.0 - 0.0
01/04:30pm 7.6 2.4 -2.7 48 4.1 SW 15 22 8 12 1020.5 - 0.0
01/04:00pm 7.7 2.4 -3.5 45 4.4 WSW 15 24 8 13 1020.4 - 0.0
01/03:30pm 7.4 2.1 -4.0 44 4.4 SSW 15 28 8 15 1019.9 - 0.0
01/03:00pm 8.3 2.7 -2.6 46 4.4 SW 17 24 9 13 1020.1 1020.7 0.0
01/02:30pm 8.0 2.0 -2.9 46 4.4 SSW 19 30 10 16 1020.2 - 0.0
01/02:00pm 7.3 0.9 -5.1 41 4.7 SSW 20 24 11 13 1019.9 - 0.0
01/01:30pm 7.2 1.0 -4.8 42 4.5 SW 19 35 10 19 1020.2 - 0.0
01/01:00pm 7.1 1.3 -4.6 43 4.4 WSW 17 35 9 19 1020.2 - 0.0
01/12:30pm 6.5 -0.3 -5.2 43 4.3 WSW 22 32 12 17 1020.3 - 0.0
01/12:00pm 5.7 0.6 -5.3 45 4.0 WSW 13 24 7 13 1020.2 1020.8 0.0
01/11:30am 6.5 2.5 -2.1 54 3.4 SW 9 20 5 11 1020.3 - 0.0
01/11:00am 5.1 0.1 -4.2 51 3.5 SW 13 20 7 11 1020.1 - 0.0
01/10:30am 5.3 -1.3 -3.5 53 3.4 S 22 32 12 17 1019.8 - 0.0
01/10:00am 3.6 -3.6 -5.6 51 3.3 SW 24 37 13 20 1019.7 - 0.0
01/09:30am 3.2 -3.9 -4.5 57 2.8 SSW 24 41 13 22 1019.4 - 0.0
01/09:09am 2.3 -5.6 -4.6 60 2.6 SSW 28 50 15 27 1019.0 - 0.0
01/09:00am 2.7 -4.3 -3.2 65 2.2 SSW 24 37 13 20 1019.0 1019.7 4.6
01/08:51am 1.8 -6.0 -4.1 65 2.2 SSW 28 50 15 27 1018.7 - 4.6
01/08:30am 1.6 -5.0 -3.3 70 1.9 SW 22 37 12 20 1018.6 - 4.6
01/08:00am 0.6 -6.1 -4.2 70 1.7 SW 22 39 12 21 1017.8 - 4.6
01/07:30am 0.3 -5.9 -4.5 70 1.7 SW 19 33 10 18 1017.1 - 4.6
01/07:00am -0.1 -5.1 -4.5 72 1.5 SW 13 24 7 13 1016.8 - 4.6
01/06:30am -0.5 -6.9 -4.9 72 1.5 SW 20 32 11 17 1016.2 - 4.6
01/06:00am -0.9 -6.4 -5.3 72 1.5 WSW 15 22 8 12 1015.6 1016.2 4.6
01/05:30am -1.1 -7.0 -5.7 71 1.5 WSW 17 28 9 15 1015.1 - 4.6
01/05:00am -0.9 -5.6 -5.1 73 1.4 WSW 11 20 6 11 1014.5 - 4.6
01/04:30am -0.4 -5.9 -5.2 70 1.6 WSW 15 26 8 14 1013.9 - 4.6
01/04:00am -0.4 -6.3 -5.4 69 1.7 WSW 17 26 9 14 1013.2 - 4.6
01/03:30am -0.1 -6.6 -5.5 67 1.8 WSW 20 33 11 18 1012.9 - 4.6
01/03:00am -0.1 -6.9 -5.5 67 1.9 WSW 22 39 12 21 1012.3 1012.8 4.6
01/02:30am -0.3 -6.8 -5.5 68 1.8 W 20 33 11 18 1011.7 - 4.6
01/02:00am -0.4 -6.8 -5.4 69 1.7 W 20 33 11 18 1011.5 - 4.6
01/01:30am -0.4 -6.8 -5.2 70 1.6 W 20 32 11 17 1011.4 - 4.6
01/01:00am -0.4 -6.6 -4.8 72 1.5 W 19 30 10 16 1011.3 - 4.6
01/12:30am -0.1 -6.5 -4.9 70 1.7 W 20 30 11 16 1011.1 - 4.6
01/12:00am 0.2 -6.2 -4.8 69 1.8 W 20 33 11 18 1011.2 1013.2 4.6
 
Date/Time
EST
Temp
°C
App
Temp
°C
Dew
Point
Rel
Hum
%
Delta-T
°C
Wind Press
QNH
hPa
Press
MSL
hPa
Rain
since 9 am
mm
Dir
 
Spd
km/h
Gust
km/h
Spd
kts
Gust
kts
30/11:30pm 0.6 -6.2 -4.8 67 1.9 W 22 35 12 19 1011.2 - 4.6
30/11:00pm 0.7 -5.4 -3.9 71 1.7 W 19 30 10 16 1011.3 - 4.6
30/10:30pm 0.9 -4.7 -3.0 75 1.5 W 17 26 9 14 1010.9 - 4.6
30/10:00pm 1.5 -4.4 -2.1 77 1.4 W 19 28 10 15 1010.8 - 4.6
30/09:30pm 1.5 -4.9 -1.4 81 1.1 W 22 39 12 21 1010.3 - 4.6
30/09:05pm 2.5 -4.9 -0.9 78 1.3 W 28 48 15 26 1010.4 - 4.6
30/09:00pm 2.5 -4.9 -0.4 81 1.2 W 28 44 15 24 1010.3 1012.3 4.6
30/08:30pm 4.1 -4.0 1.1 81 1.3 W 33 52 18 28 1010.3 - 4.4
30/08:00pm 6.3 -1.8 3.3 81 1.4 W 35 59 19 32 1009.1 - 4.2
30/07:50pm 7.2 -2.0 3.6 78 1.7 W 41 61 22 33 1009.1 - 4.0
30/07:30pm 9.7 1.5 2.6 61 3.3 WNW 35 54 19 29 1007.5 - 3.2
30/07:06pm 9.5 1.8 3.3 65 2.9 WNW 33 52 18 28 1007.2 - 3.2
30/07:00pm 9.5 1.4 3.3 65 2.9 WNW 35 52 19 28 1007.2 - 3.2
30/06:30pm 9.2 0.2 4.4 72 2.3 NW 41 61 22 33 1007.2 - 3.2
30/06:03pm 7.6 -3.5 4.7 82 1.4 WNW 52 72 28 39 1007.8 - 3.0
30/06:00pm 8.3 0.2 5.1 80 1.5 NW 37 63 20 34 1007.8 1009.7 2.2
30/05:30pm 8.9 1.6 5.5 79 1.7 NW 33 72 18 39 1007.1 - 1.8
30/05:00pm 10.3 2.0 4.0 65 3.0 NW 37 59 20 32 1007.5 - 0.0
30/04:30pm 10.4 1.9 3.2 61 3.4 NW 37 72 20 39 1008.0 - 0.0
30/04:00pm 11.1 2.1 2.7 56 3.9 NW 39 59 21 32 1007.9 - 0.0
30/03:30pm 11.3 2.3 2.6 55 4.1 NW 39 63 21 34 1008.4 - 0.0
30/03:00pm 12.5 2.2 2.7 51 4.7 NW 46 67 25 36 1007.8 1009.7 0.0
30/02:47pm 12.5 3.1 2.4 50 4.7 NW 41 61 22 33 1007.8 - 0.0
30/02:44pm 12.6 3.5 1.9 48 5.0 NW 39 54 21 29 1007.9 - 0.0
30/02:41pm 12.8 -0.5 1.8 47 5.1 WNW 61 80 33 43 1008.0 - 0.0
30/02:39pm 13.0 -1.1 1.7 46 5.2 NW 65 80 35 43 1008.3 - 0.0
30/02:30pm 13.2 3.7 1.8 46 5.3 NW 41 70 22 38 1008.1 - 0.0
30/02:26pm 13.8 5.9 2.4 46 5.4 NW 33 57 18 31 1008.3 - 0.0
30/02:24pm 13.8 6.0 2.7 47 5.3 WNW 33 43 18 23 1008.3 - 0.0
30/02:00pm 13.9 1.6 2.2 45 5.5 WNW 56 78 30 42 1008.3 - 0.0
30/01:30pm 13.9 2.9 0.5 40 6.1 NW 48 74 26 40 1007.8 - 0.0
30/01:00pm 13.4 1.5 -0.3 39 6.1 NW 52 83 28 45 1007.9 - 0.0
30/12:30pm 14.2 1.7 0.8 40 6.2 WNW 56 80 30 43 1008.4 - 0.0
30/12:00pm 13.2 0.4 0.3 41 5.8 WNW 57 89 31 48 1008.6 1010.5 0.0
30/11:30am 13.2 0.9 2.1 47 5.2 WNW 56 76 30 41 1009.6 - 0.0
30/11:00am 12.4 0.8 2.0 49 4.8 WNW 52 78 28 42 1010.0 - 0.0
30/10:30am 13.0 2.9 3.7 53 4.5 NW 46 80 25 43 1010.6 - 0.0
30/10:26am 12.8 0.7 3.2 52 4.6 WNW 56 80 30 43 1010.9 - 0.0
30/10:00am 13.0 5.5 3.4 52 4.6 NW 32 57 17 31 1011.5 - 0.0
30/09:38am 12.5 1.2 3.2 53 4.4 NW 52 70 28 38 1011.9 - 0.0
30/09:30am 12.7 6.1 4.2 56 4.2 NW 28 46 15 25 1012.0 - 0.0
30/09:00am 11.6 5.9 3.1 56 4.0 NW 22 52 12 28 1012.1 1014.2 0.0
30/08:30am 11.2 4.1 3.3 58 3.7 NNW 30 50 16 27 1012.2 - 0.0
30/08:00am 10.8 3.3 3.4 60 3.5 NW 32 52 17 28 1012.5 - 0.0
30/07:36am 10.4 3.2 3.0 60 3.5 NW 30 48 16 26 1012.6 - 0.0
30/07:30am 10.4 3.6 3.0 60 3.5 NW 28 41 15 22 1012.5 - 0.0
30/07:09am 9.9 2.2 2.3 59 3.5 NW 32 54 17 29 1012.3 - 0.0
30/07:00am 9.7 2.4 2.3 60 3.4 NW 30 44 16 24 1012.3 - 0.0
30/06:30am 8.8 2.2 2.2 63 3.0 NW 26 43 14 23 1012.5 - 0.0
30/06:00am 8.3 2.2 2.5 67 2.6 NW 24 41 13 22 1012.2 1014.3 0.0
30/05:30am 8.6 1.7 2.4 65 2.8 NW 28 37 15 20 1012.3 - 0.0
30/05:00am 8.6 2.5 2.8 67 2.7 NW 24 46 13 25 1012.5 - 0.0
30/04:30am 8.7 2.9 2.5 65 2.8 NW 22 35 12 19 1012.3 - 0.0
30/04:00am 8.8 2.3 2.4 64 2.9 NW 26 37 14 20 1012.2 - 0.0
30/03:30am 8.7 2.1 2.3 64 2.9 NW 26 39 14 21 1012.6 - 0.0
30/03:00am 8.6 1.2 2.0 63 3.0 NW 30 43 16 23 1012.9 1015.0 0.0
30/02:40am 8.7 1.7 1.8 62 3.1 NW 28 46 15 25 1013.1 - 0.0
30/02:30am 8.6 1.9 1.7 62 3.1 NW 26 41 14 22 1013.1 - 0.0
30/02:00am 8.3 2.8 1.9 64 2.9 NW 20 37 11 20 1013.6 - 0.0
30/01:31am 7.5 0.5 2.0 68 2.5 WNW 28 50 15 27 1014.0 - 0.0
30/01:30am 7.4 0.4 1.9 68 2.4 WNW 28 43 15 23 1014.2 - 0.0
30/01:00am 7.2 1.4 2.3 71 2.2 NNW 22 33 12 18 1014.4 - 0.0
30/12:30am 7.5 -0.3 2.8 72 2.1 NW 33 44 18 24 1014.6 - 0.0
30/12:25am 7.5 -0.7 2.8 72 2.1 NW 35 54 19 29 1014.6 - 0.0
30/12:00am 7.8 -0.4 2.5 69 2.4 NW 35 48 19 26 1014.8 1017.0 0.0
 
Date/Time
EST
Temp
°C
App
Temp
°C
Dew
Point
Rel
Hum
%
Delta-T
°C
Wind Press
QNH
hPa
Press
MSL
hPa
Rain
since 9 am
mm
Dir
 
Spd
km/h
Gust
km/h
Spd
kts
Gust
kts
29/11:30pm 8.1 0.6 1.0 61 3.1 NNW 30 43 16 23 1015.1 - 0.0
29/11:00pm 8.1 1.8 -1.1 52 3.8 NW 22 35 12 19 1015.5 - 0.0
29/10:30pm 7.6 1.6 -6.5 36 5.1 NW 17 24 9 13 1015.5 - 0.0
29/10:00pm 5.0 2.8 0.9 75 1.7 N 2 7 1 4 1015.7 - 0.0
29/09:30pm 5.7 2.8 2.5 80 1.4 N 7 11 4 6 1015.9 - 0.0
29/09:00pm 6.4 3.4 0.9 68 2.4 NW 6 11 3 6 1016.0 1018.2 0.0
29/08:30pm 8.0 3.5 2.3 67 2.6 WNW 15 20 8 11 1016.2 - 0.0
29/08:00pm 6.9 3.0 3.5 79 1.6 WNW 13 17 7 9 1016.3 - 0.0
29/07:30pm 6.8 3.6 3.1 77 1.7 WNW 9 17 5 9 1016.2 - 0.0
29/07:00pm 8.9 6.5 4.1 72 2.3 NNW 6 9 3 5 1016.0 - 0.0
29/06:30pm 10.1 5.1 4.5 68 2.7 NW 20 28 11 15 1015.6 - 0.0
29/06:00pm 11.3 5.5 4.3 62 3.4 NW 24 35 13 19 1015.4 1017.6 0.0
29/05:30pm 12.9 7.6 3.0 51 4.7 NW 20 26 11 14 1015.3 - 0.0
29/05:00pm 13.9 8.1 2.5 46 5.4 NNW 22 35 12 19 1015.1 - 0.0
29/04:30pm 14.6 8.6 1.2 40 6.2 NNW 22 30 12 16 1014.9 - 0.0
29/04:00pm 15.3 8.5 1.1 38 6.6 NW 26 37 14 20 1015.1 - 0.0
29/03:30pm 15.6 7.6 0.2 35 7.1 NW 32 43 17 23 1014.9 - 0.0
29/03:00pm 16.0 7.9 -0.2 33 7.4 WNW 32 43 17 23 1014.7 1016.9 0.0
29/02:30pm 16.5 10.4 0.6 34 7.4 WNW 22 35 12 19 1014.8 - 0.0
29/02:00pm 17.0 10.7 1.4 35 7.4 NW 24 39 13 21 1014.9 - 0.0
29/01:30pm 17.0 11.0 1.0 34 7.6 NNW 22 37 12 20 1015.2 - 0.0
29/01:00pm 16.0 9.7 1.3 37 6.9 NNW 24 33 13 18 1015.2 - 0.0
29/12:30pm 15.8 9.3 0.4 35 7.1 NNW 24 32 13 17 1015.3 - 0.0
29/12:00pm 16.0 10.3 0.6 35 7.2 NNW 20 30 11 16 1015.4 1017.6 0.0
29/11:30am 15.7 10.0 0.7 36 7.0 NW 20 32 11 17 1015.3 - 0.0
29/11:00am 15.2 10.1 0.6 37 6.7 NNW 17 26 9 14 1015.4 - 0.0
29/10:30am 15.1 9.3 -1.5 32 7.3 NNW 19 28 10 15 1015.3 - 0.0
29/10:00am 14.8 10.2 -0.9 34 7.0 NW 13 24 7 13 1015.1 - 0.0
29/09:30am 14.6 9.4 -2.8 30 7.4 NNW 15 24 8 13 1015.2 - 0.0
29/09:00am 13.9 9.2 -1.7 34 6.8 N 13 17 7 9 1015.2 1017.3 0.0
29/08:30am 12.8 8.3 -0.1 41 5.8 N 13 19 7 10 1014.9 - 0.0
29/08:00am 11.9 7.6 -1.6 39 5.8 N 11 19 6 10 1014.6 - 0.0
29/07:30am 11.4 6.6 -2.4 38 5.8 NW 13 20 7 11 1014.4 - 0.0
29/07:00am 10.6 5.9 -1.8 42 5.2 WNW 13 24 7 13 1013.9 - 0.0
29/06:30am 9.3 5.0 -1.4 47 4.5 W 11 19 6 10 1013.5 - 0.0
29/06:00am 8.9 2.8 0.6 56 3.6 WNW 22 32 12 17 1013.1 1015.2 0.0
29/05:30am 9.3 2.9 1.0 56 3.7 WNW 24 32 13 17 1013.0 - 0.0
29/05:00am 9.2 3.2 0.9 56 3.7 NW 22 32 12 17 1012.8 - 0.0
29/04:30am 9.8 3.9 1.7 57 3.7 NW 22 32 12 17 1012.7 - 0.0
29/04:00am 10.6 4.3 1.7 54 4.1 NW 24 41 13 22 1012.2 - 0.0
29/03:30am 11.0 4.0 2.1 54 4.1 NW 28 41 15 22 1012.1 - 0.0
29/03:07am 11.5 4.5 2.0 52 4.4 NNW 28 46 15 25 1011.5 - 0.0
29/03:00am 11.6 4.2 1.8 51 4.5 NNW 30 41 16 22 1011.5 1013.6 0.0
29/02:48am 11.6 4.2 1.8 51 4.5 NW 30 48 16 26 1011.5 - 0.0
29/02:30am 11.7 3.9 1.9 51 4.5 NNW 32 46 17 25 1011.9 - 0.0

Other Formats:

Comma delimited format used in spreadsheet applications
http://www.bom.gov.au/fwo/IDV60801/IDV60801.94905.axf

JavaScript Object Notation format (JSON) in row-major order
http://www.bom.gov.au/fwo/IDV60801/IDV60801.94905.json